Camden Point, Missouri
Current Conditions -  °F | °C
As of 2:53 PM on Tuesday 21 Oct 2014 (Local Time) from KMCI Reporting Station
Clear Clear  
Wind Chill: 72°   Ceiling: Unl
Heat Index: 72°   Visibility: 10mi
Dew Point: 43°   Wind: 6mph
Humidity: 35%   Direction: 170°S
Pressure: 30.09"   Gusts: NA
Location:  39.45°N, 94.74°W
Report Text: KMCI 211953Z 17005KT 10SM CLR 22/06 A3009 RMK AO2 SLP183 T02220061
Loading
Personal Weather Stations






























Interactive Weather Map
Tropical Storm Tracking
New forecast layout! Learn more

10-Day Weather Forecast

Advertisements
Track Severe Weather on mobile